sensor_id;sensor_type;location;lat;lon;timestamp;temperature;humidity
5940;DHT22;2995;-31.998;115.906;2022-12-24T00:02:16;29.90;99.90
5940;DHT22;2995;-31.998;115.906;2022-12-24T00:04:47;30.30;99.90
5940;DHT22;2995;-31.998;115.906;2022-12-24T00:07:19;30.50;99.90
5940;DHT22;2995;-31.998;115.906;2022-12-24T00:09:50;30.90;99.90
5940;DHT22;2995;-31.998;115.906;2022-12-24T00:12:21;31.30;99.90
5940;DHT22;2995;-31.998;115.906;2022-12-24T00:14:54;31.90;99.90
5940;DHT22;2995;-31.998;115.906;2022-12-24T00:17:25;32.30;99.90
5940;DHT22;2995;-31.998;115.906;2022-12-24T00:19:57;33.20;99.90
5940;DHT22;2995;-31.998;115.906;2022-12-24T00:22:28;34.00;99.40
5940;DHT22;2995;-31.998;115.906;2022-12-24T00:24:59;34.10;99.00
5940;DHT22;2995;-31.998;115.906;2022-12-24T00:27:30;33.80;97.50
5940;DHT22;2995;-31.998;115.906;2022-12-24T00:30:04;34.30;96.50
5940;DHT22;2995;-31.998;115.906;2022-12-24T00:32:35;34.50;95.10
5940;DHT22;2995;-31.998;115.906;2022-12-24T00:35:07;34.60;95.60
5940;DHT22;2995;-31.998;115.906;2022-12-24T00:37:39;35.00;94.70
5940;DHT22;2995;-31.998;115.906;2022-12-24T00:40:10;35.60;93.40
5940;DHT22;2995;-31.998;115.906;2022-12-24T00:42:41;36.10;93.10
5940;DHT22;2995;-31.998;115.906;2022-12-24T00:45:15;36.10;91.90
5940;DHT22;2995;-31.998;115.906;2022-12-24T00:47:46;36.40;91.50
5940;DHT22;2995;-31.998;115.906;2022-12-24T00:50:17;35.90;91.30
5940;DHT22;2995;-31.998;115.906;2022-12-24T00:52:48;35.90;91.00
5940;DHT22;2995;-31.998;115.906;2022-12-24T00:55:19;36.30;90.70
5940;DHT22;2995;-31.998;115.906;2022-12-24T00:57:51;36.70;88.60
5940;DHT22;2995;-31.998;115.906;2022-12-24T01:00:24;36.70;86.10
5940;DHT22;2995;-31.998;115.906;2022-12-24T01:02:55;36.80;87.00
5940;DHT22;2995;-31.998;115.906;2022-12-24T01:05:29;37.20;85.90
5940;DHT22;2995;-31.998;115.906;2022-12-24T01:07:59;37.10;84.90
5940;DHT22;2995;-31.998;115.906;2022-12-24T01:10:30;36.40;86.70
5940;DHT22;2995;-31.998;115.906;2022-12-24T01:13:02;36.70;89.80
5940;DHT22;2995;-31.998;115.906;2022-12-24T01:15:37;37.00;92.30
5940;DHT22;2995;-31.998;115.906;2022-12-24T01:18:08;37.20;92.50
5940;DHT22;2995;-31.998;115.906;2022-12-24T01:20:39;37.30;92.30
5940;DHT22;2995;-31.998;115.906;2022-12-24T01:23:11;37.10;92.60
5940;DHT22;2995;-31.998;115.906;2022-12-24T01:25:42;37.00;92.80
5940;DHT22;2995;-31.998;115.906;2022-12-24T01:28:13;36.80;92.90
5940;DHT22;2995;-31.998;115.906;2022-12-24T01:30:47;37.30;92.20
5940;DHT22;2995;-31.998;115.906;2022-12-24T01:33:18;36.70;92.20
5940;DHT22;2995;-31.998;115.906;2022-12-24T01:35:49;36.70;92.20
5940;DHT22;2995;-31.998;115.906;2022-12-24T01:38:20;36.70;92.00
5940;DHT22;2995;-31.998;115.906;2022-12-24T01:40:51;36.80;92.10
5940;DHT22;2995;-31.998;115.906;2022-12-24T01:43:38;37.00;92.00
5940;DHT22;2995;-31.998;115.906;2022-12-24T01:46:15;37.40;91.70
5940;DHT22;2995;-31.998;115.906;2022-12-24T01:48:50;37.50;91.90
5940;DHT22;2995;-31.998;115.906;2022-12-24T01:51:28;37.70;91.90
5940;DHT22;2995;-31.998;115.906;2022-12-24T01:54:03;37.60;91.30
5940;DHT22;2995;-31.998;115.906;2022-12-24T01:56:37;37.50;91.30
5940;DHT22;2995;-31.998;115.906;2022-12-24T01:59:12;37.50;91.00
5940;DHT22;2995;-31.998;115.906;2022-12-24T02:01:47;37.10;91.70
5940;DHT22;2995;-31.998;115.906;2022-12-24T02:04:27;37.10;92.00
5940;DHT22;2995;-31.998;115.906;2022-12-24T02:07:00;36.70;91.90
5940;DHT22;2995;-31.998;115.906;2022-12-24T02:09:33;36.40;92.80
5940;DHT22;2995;-31.998;115.906;2022-12-24T02:12:06;36.70;93.50
5940;DHT22;2995;-31.998;115.906;2022-12-24T02:14:37;36.70;93.40
5940;DHT22;2995;-31.998;115.906;2022-12-24T02:17:17;36.50;94.40
5940;DHT22;2995;-31.998;115.906;2022-12-24T02:20:11;36.50;94.30
5940;DHT22;2995;-31.998;115.906;2022-12-24T02:26:13;36.00;93.80
5940;DHT22;2995;-31.998;115.906;2022-12-24T02:29:11;35.80;93.30
5940;DHT22;2995;-31.998;115.906;2022-12-24T02:31:51;35.60;93.10
5940;DHT22;2995;-31.998;115.906;2022-12-24T02:34:29;35.60;93.10
5940;DHT22;2995;-31.998;115.906;2022-12-24T02:37:04;35.30;92.80
5940;DHT22;2995;-31.998;115.906;2022-12-24T02:39:41;35.10;93.20
5940;DHT22;2995;-31.998;115.906;2022-12-24T02:42:16;34.60;92.80
5940;DHT22;2995;-31.998;115.906;2022-12-24T02:44:51;34.90;93.30
5940;DHT22;2995;-31.998;115.906;2022-12-24T02:47:26;34.90;93.20
5940;DHT22;2995;-31.998;115.906;2022-12-24T02:50:01;34.80;92.80
5940;DHT22;2995;-31.998;115.906;2022-12-24T02:52:34;34.60;92.70
5940;DHT22;2995;-31.998;115.906;2022-12-24T02:55:11;34.30;93.00
5940;DHT22;2995;-31.998;115.906;2022-12-24T02:58:09;34.60;92.90
5940;DHT22;2995;-31.998;115.906;2022-12-24T03:00:48;34.70;92.90
5940;DHT22;2995;-31.998;115.906;2022-12-24T03:03:34;34.80;92.10
5940;DHT22;2995;-31.998;115.906;2022-12-24T03:06:14;34.60;92.60
5940;DHT22;2995;-31.998;115.906;2022-12-24T03:08:52;34.60;92.30
5940;DHT22;2995;-31.998;115.906;2022-12-24T03:11:25;33.90;92.10
5940;DHT22;2995;-31.998;115.906;2022-12-24T03:13:58;34.20;92.30
5940;DHT22;2995;-31.998;115.906;2022-12-24T03:16:30;34.20;91.90
5940;DHT22;2995;-31.998;115.906;2022-12-24T03:19:04;34.40;92.00
5940;DHT22;2995;-31.998;115.906;2022-12-24T03:21:37;34.50;91.60
5940;DHT22;2995;-31.998;115.906;2022-12-24T03:24:10;34.50;91.90
5940;DHT22;2995;-31.998;115.906;2022-12-24T03:26:43;34.60;92.20
5940;DHT22;2995;-31.998;115.906;2022-12-24T03:29:14;34.70;92.30
5940;DHT22;2995;-31.998;115.906;2022-12-24T03:31:48;34.60;92.10
5940;DHT22;2995;-31.998;115.906;2022-12-24T03:34:21;34.60;92.00
5940;DHT22;2995;-31.998;115.906;2022-12-24T03:36:53;34.50;92.00
5940;DHT22;2995;-31.998;115.906;2022-12-24T03:39:24;34.20;92.10
5940;DHT22;2995;-31.998;115.906;2022-12-24T03:41:55;34.30;92.10
5940;DHT22;2995;-31.998;115.906;2022-12-24T03:44:26;34.50;92.30
5940;DHT22;2995;-31.998;115.906;2022-12-24T03:46:57;34.20;92.30
5940;DHT22;2995;-31.998;115.906;2022-12-24T03:49:31;34.20;92.60
5940;DHT22;2995;-31.998;115.906;2022-12-24T03:52:02;34.50;92.60
5940;DHT22;2995;-31.998;115.906;2022-12-24T03:54:33;34.50;92.70
5940;DHT22;2995;-31.998;115.906;2022-12-24T03:57:04;34.70;92.30
5940;DHT22;2995;-31.998;115.906;2022-12-24T03:59:35;34.50;92.50
5940;DHT22;2995;-31.998;115.906;2022-12-24T04:02:07;34.30;92.60
5940;DHT22;2995;-31.998;115.906;2022-12-24T04:04:40;34.30;92.30
5940;DHT22;2995;-31.998;115.906;2022-12-24T04:07:11;34.50;91.90
5940;DHT22;2995;-31.998;115.906;2022-12-24T04:09:42;34.30;91.40
5940;DHT22;2995;-31.998;115.906;2022-12-24T04:12:13;34.20;90.80
5940;DHT22;2995;-31.998;115.906;2022-12-24T04:14:45;34.20;91.20
5940;DHT22;2995;-31.998;115.906;2022-12-24T04:17:18;34.30;91.30
5940;DHT22;2995;-31.998;115.906;2022-12-24T04:19:51;34.40;90.70
5940;DHT22;2995;-31.998;115.906;2022-12-24T04:22:25;34.20;90.30
5940;DHT22;2995;-31.998;115.906;2022-12-24T04:24:57;34.10;90.20
5940;DHT22;2995;-31.998;115.906;2022-12-24T04:27:28;34.10;90.30
5940;DHT22;2995;-31.998;115.906;2022-12-24T04:29:59;34.10;90.50
5940;DHT22;2995;-31.998;115.906;2022-12-24T04:32:30;34.00;90.00
5940;DHT22;2995;-31.998;115.906;2022-12-24T04:35:03;34.20;90.40
5940;DHT22;2995;-31.998;115.906;2022-12-24T04:37:35;33.90;90.30
5940;DHT22;2995;-31.998;115.906;2022-12-24T04:40:07;34.00;90.50
5940;DHT22;2995;-31.998;115.906;2022-12-24T04:42:38;33.90;90.20
5940;DHT22;2995;-31.998;115.906;2022-12-24T04:45:10;33.70;90.40
5940;DHT22;2995;-31.998;115.906;2022-12-24T04:47:42;34.00;90.70
5940;DHT22;2995;-31.998;115.906;2022-12-24T04:50:15;34.20;91.60
5940;DHT22;2995;-31.998;115.906;2022-12-24T04:52:46;34.20;92.30
5940;DHT22;2995;-31.998;115.906;2022-12-24T04:55:17;34.10;92.00
5940;DHT22;2995;-31.998;115.906;2022-12-24T04:57:48;34.10;91.70
5940;DHT22;2995;-31.998;115.906;2022-12-24T05:00:20;33.90;91.60
5940;DHT22;2995;-31.998;115.906;2022-12-24T05:02:51;33.80;91.90
5940;DHT22;2995;-31.998;115.906;2022-12-24T05:05:25;33.70;92.10
5940;DHT22;2995;-31.998;115.906;2022-12-24T05:07:56;33.30;92.10
5940;DHT22;2995;-31.998;115.906;2022-12-24T05:10:27;33.60;92.60
5940;DHT22;2995;-31.998;115.906;2022-12-24T05:12:58;33.80;92.30
5940;DHT22;2995;-31.998;115.906;2022-12-24T05:15:30;33.80;92.40
5940;DHT22;2995;-31.998;115.906;2022-12-24T05:18:01;33.80;92.00
5940;DHT22;2995;-31.998;115.906;2022-12-24T05:20:34;34.00;91.50
5940;DHT22;2995;-31.998;115.906;2022-12-24T05:23:05;33.90;91.40
5940;DHT22;2995;-31.998;115.906;2022-12-24T05:25:52;33.70;92.00
5940;DHT22;2995;-31.998;115.906;2022-12-24T05:28:39;33.80;90.60
5940;DHT22;2995;-31.998;115.906;2022-12-24T05:31:10;33.50;91.60
5940;DHT22;2995;-31.998;115.906;2022-12-24T05:33:42;33.60;91.20
5940;DHT22;2995;-31.998;115.906;2022-12-24T05:36:15;33.70;91.90
5940;DHT22;2995;-31.998;115.906;2022-12-24T05:38:47;33.80;90.40
5940;DHT22;2995;-31.998;115.906;2022-12-24T05:41:18;33.80;90.80
5940;DHT22;2995;-31.998;115.906;2022-12-24T05:43:49;33.70;90.70
5940;DHT22;2995;-31.998;115.906;2022-12-24T05:46:21;33.20;90.50
5940;DHT22;2995;-31.998;115.906;2022-12-24T05:48:53;33.40;91.10
5940;DHT22;2995;-31.998;115.906;2022-12-24T05:51:26;33.30;90.30
5940;DHT22;2995;-31.998;115.906;2022-12-24T05:53:57;33.40;91.10
5940;DHT22;2995;-31.998;115.906;2022-12-24T05:56:28;33.20;90.60
5940;DHT22;2995;-31.998;115.906;2022-12-24T05:59:00;33.10;90.90
5940;DHT22;2995;-31.998;115.906;2022-12-24T06:01:31;33.10;91.00
5940;DHT22;2995;-31.998;115.906;2022-12-24T06:04:02;33.00;91.60
5940;DHT22;2995;-31.998;115.906;2022-12-24T06:06:35;32.90;90.60
5940;DHT22;2995;-31.998;115.906;2022-12-24T06:09:06;32.70;90.50
5940;DHT22;2995;-31.998;115.906;2022-12-24T06:11:38;32.80;91.30
5940;DHT22;2995;-31.998;115.906;2022-12-24T06:14:09;32.90;91.00
5940;DHT22;2995;-31.998;115.906;2022-12-24T06:16:40;33.10;91.70
5940;DHT22;2995;-31.998;115.906;2022-12-24T06:19:11;33.30;91.80
5940;DHT22;2995;-31.998;115.906;2022-12-24T06:21:45;33.40;91.20
5940;DHT22;2995;-31.998;115.906;2022-12-24T06:24:16;33.30;91.40
5940;DHT22;2995;-31.998;115.906;2022-12-24T06:26:47;33.30;91.50
5940;DHT22;2995;-31.998;115.906;2022-12-24T06:29:18;33.00;91.40
5940;DHT22;2995;-31.998;115.906;2022-12-24T06:31:49;33.00;91.40
5940;DHT22;2995;-31.998;115.906;2022-12-24T06:34:21;32.90;91.60
5940;DHT22;2995;-31.998;115.906;2022-12-24T06:36:54;33.10;92.60
5940;DHT22;2995;-31.998;115.906;2022-12-24T06:39:25;32.90;92.50
5940;DHT22;2995;-31.998;115.906;2022-12-24T06:41:56;32.90;93.30
5940;DHT22;2995;-31.998;115.906;2022-12-24T06:44:28;32.80;94.40
5940;DHT22;2995;-31.998;115.906;2022-12-24T06:46:59;32.10;95.70
5940;DHT22;2995;-31.998;115.906;2022-12-24T06:49:31;32.20;96.00
5940;DHT22;2995;-31.998;115.906;2022-12-24T06:52:04;32.40;96.40
5940;DHT22;2995;-31.998;115.906;2022-12-24T06:54:35;32.50;96.20
5940;DHT22;2995;-31.998;115.906;2022-12-24T06:57:06;32.30;96.70
5940;DHT22;2995;-31.998;115.906;2022-12-24T06:59:37;32.40;95.80
5940;DHT22;2995;-31.998;115.906;2022-12-24T07:02:09;32.40;96.80
5940;DHT22;2995;-31.998;115.906;2022-12-24T07:04:41;32.40;97.40
5940;DHT22;2995;-31.998;115.906;2022-12-24T07:07:14;32.40;97.70
5940;DHT22;2995;-31.998;115.906;2022-12-24T07:09:45;32.40;97.60
5940;DHT22;2995;-31.998;115.906;2022-12-24T07:12:16;32.30;97.90
5940;DHT22;2995;-31.998;115.906;2022-12-24T07:14:48;32.40;98.40
5940;DHT22;2995;-31.998;115.906;2022-12-24T07:17:19;32.10;98.00
5940;DHT22;2995;-31.998;115.906;2022-12-24T07:19:50;31.90;98.60
5940;DHT22;2995;-31.998;115.906;2022-12-24T07:22:23;31.80;98.70
5940;DHT22;2995;-31.998;115.906;2022-12-24T07:24:54;31.60;99.10
5940;DHT22;2995;-31.998;115.906;2022-12-24T07:27:26;31.50;98.80
5940;DHT22;2995;-31.998;115.906;2022-12-24T07:29:57;31.40;98.80
5940;DHT22;2995;-31.998;115.906;2022-12-24T07:32:28;31.40;99.90
5940;DHT22;2995;-31.998;115.906;2022-12-24T07:34:59;31.50;98.60
5940;DHT22;2995;-31.998;115.906;2022-12-24T07:37:33;31.40;98.40
5940;DHT22;2995;-31.998;115.906;2022-12-24T07:40:05;31.20;99.40
5940;DHT22;2995;-31.998;115.906;2022-12-24T07:42:36;31.20;98.30
5940;DHT22;2995;-31.998;115.906;2022-12-24T07:45:08;31.10;98.70
5940;DHT22;2995;-31.998;115.906;2022-12-24T07:47:40;31.00;99.00
5940;DHT22;2995;-31.998;115.906;2022-12-24T07:50:11;30.90;99.50
5940;DHT22;2995;-31.998;115.906;2022-12-24T07:52:44;31.10;99.60
5940;DHT22;2995;-31.998;115.906;2022-12-24T07:55:18;30.90;99.90
5940;DHT22;2995;-31.998;115.906;2022-12-24T07:57:50;31.00;99.90
5940;DHT22;2995;-31.998;115.906;2022-12-24T08:00:21;30.80;99.90
5940;DHT22;2995;-31.998;115.906;2022-12-24T08:02:52;30.60;99.90
5940;DHT22;2995;-31.998;115.906;2022-12-24T08:05:23;30.70;99.90
5940;DHT22;2995;-31.998;115.906;2022-12-24T08:07:57;30.60;99.90
5940;DHT22;2995;-31.998;115.906;2022-12-24T08:10:28;30.60;99.90
5940;DHT22;2995;-31.998;115.906;2022-12-24T08:12:59;30.20;99.90
5940;DHT22;2995;-31.998;115.906;2022-12-24T08:15:30;30.20;99.90
5940;DHT22;2995;-31.998;115.906;2022-12-24T08:18:02;30.20;99.90
5940;DHT22;2995;-31.998;115.906;2022-12-24T08:20:33;30.30;99.90
5940;DHT22;2995;-31.998;115.906;2022-12-24T08:23:07;30.00;99.90
5940;DHT22;2995;-31.998;115.906;2022-12-24T08:25:41;30.00;99.90
5940;DHT22;2995;-31.998;115.906;2022-12-24T08:28:12;30.00;99.90
5940;DHT22;2995;-31.998;115.906;2022-12-24T08:30:44;29.80;99.90
5940;DHT22;2995;-31.998;115.906;2022-12-24T08:33:15;29.60;99.90
5940;DHT22;2995;-31.998;115.906;2022-12-24T08:35:49;29.60;99.90
5940;DHT22;2995;-31.998;115.906;2022-12-24T08:38:22;29.60;99.90
5940;DHT22;2995;-31.998;115.906;2022-12-24T08:40:54;29.60;99.90
5940;DHT22;2995;-31.998;115.906;2022-12-24T08:43:25;29.50;99.90
5940;DHT22;2995;-31.998;115.906;2022-12-24T08:46:02;29.40;99.90
5940;DHT22;2995;-31.998;115.906;2022-12-24T08:48:33;29.60;99.90
5940;DHT22;2995;-31.998;115.906;2022-12-24T08:51:08;29.50;99.90
5940;DHT22;2995;-31.998;115.906;2022-12-24T08:53:42;29.50;99.90
5940;DHT22;2995;-31.998;115.906;2022-12-24T08:56:14;29.30;99.90
5940;DHT22;2995;-31.998;115.906;2022-12-24T08:58:45;29.30;99.90
5940;DHT22;2995;-31.998;115.906;2022-12-24T09:01:17;29.10;99.90
5940;DHT22;2995;-31.998;115.906;2022-12-24T09:03:49;29.30;99.90
5940;DHT22;2995;-31.998;115.906;2022-12-24T09:06:20;29.30;99.90
5940;DHT22;2995;-31.998;115.906;2022-12-24T09:08:53;29.10;99.90
5940;DHT22;2995;-31.998;115.906;2022-12-24T09:11:25;29.00;99.90
5940;DHT22;2995;-31.998;115.906;2022-12-24T09:13:56;29.00;99.90
5940;DHT22;2995;-31.998;115.906;2022-12-24T09:16:27;29.00;99.90
5940;DHT22;2995;-31.998;115.906;2022-12-24T09:18:59;28.80;99.90
5940;DHT22;2995;-31.998;115.906;2022-12-24T09:21:30;28.90;99.90
5940;DHT22;2995;-31.998;115.906;2022-12-24T09:24:04;28.70;99.90
5940;DHT22;2995;-31.998;115.906;2022-12-24T09:26:35;28.50;99.90
5940;DHT22;2995;-31.998;115.906;2022-12-24T09:29:06;28.60;99.90
5940;DHT22;2995;-31.998;115.906;2022-12-24T09:31:39;28.60;99.90
5940;DHT22;2995;-31.998;115.906;2022-12-24T09:34:11;28.50;99.90
5940;DHT22;2995;-31.998;115.906;2022-12-24T09:36:42;28.40;99.90
5940;DHT22;2995;-31.998;115.906;2022-12-24T09:39:15;28.20;99.90
5940;DHT22;2995;-31.998;115.906;2022-12-24T09:41:54;28.20;99.90
5940;DHT22;2995;-31.998;115.906;2022-12-24T09:44:36;28.20;99.90
5940;DHT22;2995;-31.998;115.906;2022-12-24T09:47:15;28.10;99.90
5940;DHT22;2995;-31.998;115.906;2022-12-24T09:49:50;28.00;99.90
5940;DHT22;2995;-31.998;115.906;2022-12-24T09:52:28;27.70;99.90
5940;DHT22;2995;-31.998;115.906;2022-12-24T09:55:06;27.60;99.90
5940;DHT22;2995;-31.998;115.906;2022-12-24T09:57:47;27.70;99.90
5940;DHT22;2995;-31.998;115.906;2022-12-24T10:00:22;27.50;99.90
5940;DHT22;2995;-31.998;115.906;2022-12-24T10:02:54;27.30;99.90
5940;DHT22;2995;-31.998;115.906;2022-12-24T10:05:32;27.30;99.90
5940;DHT22;2995;-31.998;115.906;2022-12-24T10:08:14;27.30;99.90
5940;DHT22;2995;-31.998;115.906;2022-12-24T10:10:52;27.20;99.90
5940;DHT22;2995;-31.998;115.906;2022-12-24T10:13:33;27.20;99.90
5940;DHT22;2995;-31.998;115.906;2022-12-24T10:16:17;27.10;99.90
5940;DHT22;2995;-31.998;115.906;2022-12-24T10:18:58;27.20;99.90
5940;DHT22;2995;-31.998;115.906;2022-12-24T10:21:38;26.90;99.90
5940;DHT22;2995;-31.998;115.906;2022-12-24T10:24:14;26.80;99.90
5940;DHT22;2995;-31.998;115.906;2022-12-24T10:26:54;26.80;99.90
5940;DHT22;2995;-31.998;115.906;2022-12-24T10:29:28;26.80;99.90
5940;DHT22;2995;-31.998;115.906;2022-12-24T10:32:08;26.80;99.90
5940;DHT22;2995;-31.998;115.906;2022-12-24T10:34:45;26.60;99.90
5940;DHT22;2995;-31.998;115.906;2022-12-24T10:37:23;26.50;99.90
5940;DHT22;2995;-31.998;115.906;2022-12-24T10:39:56;26.30;99.90
5940;DHT22;2995;-31.998;115.906;2022-12-24T10:42:35;26.10;99.90
5940;DHT22;2995;-31.998;115.906;2022-12-24T10:45:16;26.10;99.90
5940;DHT22;2995;-31.998;115.906;2022-12-24T10:47:50;26.00;99.90
5940;DHT22;2995;-31.998;115.906;2022-12-24T10:50:27;25.90;99.90
5940;DHT22;2995;-31.998;115.906;2022-12-24T10:53:04;26.00;99.90
5940;DHT22;2995;-31.998;115.906;2022-12-24T10:55:37;25.80;99.90
5940;DHT22;2995;-31.998;115.906;2022-12-24T10:58:15;25.80;99.90
5940;DHT22;2995;-31.998;115.906;2022-12-24T11:00:51;25.80;99.90
5940;DHT22;2995;-31.998;115.906;2022-12-24T11:03:24;25.70;99.90
5940;DHT22;2995;-31.998;115.906;2022-12-24T11:06:18;25.60;99.90
5940;DHT22;2995;-31.998;115.906;2022-12-24T11:08:50;25.60;99.90
5940;DHT22;2995;-31.998;115.906;2022-12-24T11:11:21;25.50;99.90
5940;DHT22;2995;-31.998;115.906;2022-12-24T11:13:56;25.40;99.90
5940;DHT22;2995;-31.998;115.906;2022-12-24T11:16:28;25.50;99.90
5940;DHT22;2995;-31.998;115.906;2022-12-24T11:19:03;25.40;99.90
5940;DHT22;2995;-31.998;115.906;2022-12-24T11:21:36;25.20;99.90
5940;DHT22;2995;-31.998;115.906;2022-12-24T11:24:20;25.10;99.90
5940;DHT22;2995;-31.998;115.906;2022-12-24T11:26:55;25.10;99.90
5940;DHT22;2995;-31.998;115.906;2022-12-24T11:29:48;25.00;99.90
5940;DHT22;2995;-31.998;115.906;2022-12-24T11:32:20;24.90;99.90
5940;DHT22;2995;-31.998;115.906;2022-12-24T11:34:52;24.90;99.90
5940;DHT22;2995;-31.998;115.906;2022-12-24T11:37:24;24.90;99.90
5940;DHT22;2995;-31.998;115.906;2022-12-24T11:39:57;24.80;99.90
5940;DHT22;2995;-31.998;115.906;2022-12-24T11:42:32;24.70;99.90
5940;DHT22;2995;-31.998;115.906;2022-12-24T11:45:21;24.70;99.90
5940;DHT22;2995;-31.998;115.906;2022-12-24T11:47:53;24.70;99.90
5940;DHT22;2995;-31.998;115.906;2022-12-24T11:50:27;24.60;99.90
5940;DHT22;2995;-31.998;115.906;2022-12-24T11:53:04;24.40;99.90
5940;DHT22;2995;-31.998;115.906;2022-12-24T11:55:43;24.40;99.90
5940;DHT22;2995;-31.998;115.906;2022-12-24T11:58:20;24.30;99.90
5940;DHT22;2995;-31.998;115.906;2022-12-24T12:01:01;24.30;99.90
5940;DHT22;2995;-31.998;115.906;2022-12-24T12:03:34;24.40;99.90
5940;DHT22;2995;-31.998;115.906;2022-12-24T12:06:15;24.30;99.90
5940;DHT22;2995;-31.998;115.906;2022-12-24T12:08:52;24.30;99.90
5940;DHT22;2995;-31.998;115.906;2022-12-24T12:11:26;24.10;99.90
5940;DHT22;2995;-31.998;115.906;2022-12-24T12:13:59;24.10;99.90
5940;DHT22;2995;-31.998;115.906;2022-12-24T12:16:42;24.00;99.90
5940;DHT22;2995;-31.998;115.906;2022-12-24T12:19:30;23.90;99.90
5940;DHT22;2995;-31.998;115.906;2022-12-24T12:22:05;23.90;99.90
5940;DHT22;2995;-31.998;115.906;2022-12-24T12:24:39;23.90;99.90
5940;DHT22;2995;-31.998;115.906;2022-12-24T12:27:29;23.80;99.90
5940;DHT22;2995;-31.998;115.906;2022-12-24T12:30:03;23.80;99.90
5940;DHT22;2995;-31.998;115.906;2022-12-24T12:32:43;23.70;99.90
5940;DHT22;2995;-31.998;115.906;2022-12-24T12:35:21;23.60;99.90
5940;DHT22;2995;-31.998;115.906;2022-12-24T12:37:56;23.50;99.90
5940;DHT22;2995;-31.998;115.906;2022-12-24T12:40:41;23.50;99.90
5940;DHT22;2995;-31.998;115.906;2022-12-24T12:43:25;23.50;99.90
5940;DHT22;2995;-31.998;115.906;2022-12-24T12:46:04;23.40;99.90
5940;DHT22;2995;-31.998;115.906;2022-12-24T12:49:01;23.40;99.90
5940;DHT22;2995;-31.998;115.906;2022-12-24T12:51:40;23.20;99.90
5940;DHT22;2995;-31.998;115.906;2022-12-24T12:54:29;23.10;99.90
5940;DHT22;2995;-31.998;115.906;2022-12-24T12:57:05;23.10;99.90
5940;DHT22;2995;-31.998;115.906;2022-12-24T12:59:39;23.10;99.90
5940;DHT22;2995;-31.998;115.906;2022-12-24T13:02:34;23.10;99.90
5940;DHT22;2995;-31.998;115.906;2022-12-24T13:05:46;23.10;99.90
5940;DHT22;2995;-31.998;115.906;2022-12-24T13:08:34;23.20;99.90
5940;DHT22;2995;-31.998;115.906;2022-12-24T13:11:34;23.10;99.90
5940;DHT22;2995;-31.998;115.906;2022-12-24T13:14:24;23.10;99.90
5940;DHT22;2995;-31.998;115.906;2022-12-24T13:20:18;23.20;99.90
5940;DHT22;2995;-31.998;115.906;2022-12-24T13:22:56;23.00;99.90
5940;DHT22;2995;-31.998;115.906;2022-12-24T13:25:33;23.00;99.90
5940;DHT22;2995;-31.998;115.906;2022-12-24T13:28:31;22.90;99.90
5940;DHT22;2995;-31.998;115.906;2022-12-24T13:31:26;22.90;99.90
5940;DHT22;2995;-31.998;115.906;2022-12-24T13:34:00;22.90;99.90
5940;DHT22;2995;-31.998;115.906;2022-12-24T13:37:04;22.80;99.90
5940;DHT22;2995;-31.998;115.906;2022-12-24T13:40:11;22.60;99.90
5940;DHT22;2995;-31.998;115.906;2022-12-24T13:42:51;22.60;99.90
5940;DHT22;2995;-31.998;115.906;2022-12-24T13:45:44;22.70;99.90
5940;DHT22;2995;-31.998;115.906;2022-12-24T13:48:38;22.70;99.90
5940;DHT22;2995;-31.998;115.906;2022-12-24T13:51:22;22.40;99.90
5940;DHT22;2995;-31.998;115.906;2022-12-24T13:53:58;22.50;99.90
5940;DHT22;2995;-31.998;115.906;2022-12-24T13:56:32;22.50;99.90
5940;DHT22;2995;-31.998;115.906;2022-12-24T13:59:21;22.40;99.90
5940;DHT22;2995;-31.998;115.906;2022-12-24T14:01:54;22.30;99.90
5940;DHT22;2995;-31.998;115.906;2022-12-24T14:04:27;22.40;99.90
5940;DHT22;2995;-31.998;115.906;2022-12-24T14:07:01;22.40;99.90
5940;DHT22;2995;-31.998;115.906;2022-12-24T14:09:34;22.40;99.90
5940;DHT22;2995;-31.998;115.906;2022-12-24T14:12:31;22.10;99.90
5940;DHT22;2995;-31.998;115.906;2022-12-24T14:18:19;22.30;99.90
5940;DHT22;2995;-31.998;115.906;2022-12-24T14:20:53;22.40;99.90
5940;DHT22;2995;-31.998;115.906;2022-12-24T14:26:18;22.10;99.90
5940;DHT22;2995;-31.998;115.906;2022-12-24T14:28:54;22.00;99.90
5940;DHT22;2995;-31.998;115.906;2022-12-24T14:31:27;21.90;99.90
5940;DHT22;2995;-31.998;115.906;2022-12-24T14:34:11;22.10;99.90
5940;DHT22;2995;-31.998;115.906;2022-12-24T14:36:44;22.10;99.90
5940;DHT22;2995;-31.998;115.906;2022-12-24T14:39:24;22.00;99.90
5940;DHT22;2995;-31.998;115.906;2022-12-24T14:42:08;22.10;99.90
5940;DHT22;2995;-31.998;115.906;2022-12-24T14:44:47;22.10;99.90
5940;DHT22;2995;-31.998;115.906;2022-12-24T14:47:27;22.00;99.90
5940;DHT22;2995;-31.998;115.906;2022-12-24T14:50:18;22.20;99.90
5940;DHT22;2995;-31.998;115.906;2022-12-24T14:53:00;22.30;99.90
5940;DHT22;2995;-31.998;115.906;2022-12-24T14:55:38;22.10;99.90
5940;DHT22;2995;-31.998;115.906;2022-12-24T14:58:24;22.00;99.90
5940;DHT22;2995;-31.998;115.906;2022-12-24T15:00:59;22.20;99.90
5940;DHT22;2995;-31.998;115.906;2022-12-24T15:03:31;22.30;99.90
5940;DHT22;2995;-31.998;115.906;2022-12-24T15:06:04;22.40;99.90
5940;DHT22;2995;-31.998;115.906;2022-12-24T15:08:38;22.40;99.90
5940;DHT22;2995;-31.998;115.906;2022-12-24T15:11:15;22.20;99.90
5940;DHT22;2995;-31.998;115.906;2022-12-24T15:13:48;22.00;99.90
5940;DHT22;2995;-31.998;115.906;2022-12-24T15:16:24;22.00;99.90
5940;DHT22;2995;-31.998;115.906;2022-12-24T15:18:58;22.00;99.90
5940;DHT22;2995;-31.998;115.906;2022-12-24T15:21:32;21.90;99.90
5940;DHT22;2995;-31.998;115.906;2022-12-24T15:24:04;21.90;99.90
5940;DHT22;2995;-31.998;115.906;2022-12-24T15:26:36;21.80;99.90
5940;DHT22;2995;-31.998;115.906;2022-12-24T15:29:20;21.80;99.90
5940;DHT22;2995;-31.998;115.906;2022-12-24T15:31:57;21.90;99.90
5940;DHT22;2995;-31.998;115.906;2022-12-24T15:34:34;22.00;99.90
5940;DHT22;2995;-31.998;115.906;2022-12-24T15:37:11;22.00;99.90
5940;DHT22;2995;-31.998;115.906;2022-12-24T15:39:44;22.00;99.90
5940;DHT22;2995;-31.998;115.906;2022-12-24T15:42:23;22.00;99.90
5940;DHT22;2995;-31.998;115.906;2022-12-24T15:45:00;21.90;99.90
5940;DHT22;2995;-31.998;115.906;2022-12-24T15:47:36;21.70;99.90
5940;DHT22;2995;-31.998;115.906;2022-12-24T15:50:15;21.60;99.90
5940;DHT22;2995;-31.998;115.906;2022-12-24T15:52:48;21.60;99.90
5940;DHT22;2995;-31.998;115.906;2022-12-24T15:55:27;21.40;99.90
5940;DHT22;2995;-31.998;115.906;2022-12-24T15:57:59;21.60;99.90
5940;DHT22;2995;-31.998;115.906;2022-12-24T16:00:31;21.70;99.90
5940;DHT22;2995;-31.998;115.906;2022-12-24T16:03:18;21.70;99.90
5940;DHT22;2995;-31.998;115.906;2022-12-24T16:05:59;21.70;99.90
5940;DHT22;2995;-31.998;115.906;2022-12-24T16:08:32;21.70;99.90
5940;DHT22;2995;-31.998;115.906;2022-12-24T16:11:14;21.70;99.90
5940;DHT22;2995;-31.998;115.906;2022-12-24T16:14:01;21.50;99.90
5940;DHT22;2995;-31.998;115.906;2022-12-24T16:16:38;21.40;99.90
5940;DHT22;2995;-31.998;115.906;2022-12-24T16:19:19;21.40;99.90